createdAt,value
2022-08-26T00:02:10.122Z,100127.34
2022-08-26T00:04:40.543Z,100130.05
2022-08-26T00:07:10.201Z,100127.94
2022-08-26T00:09:42.108Z,100130.02
2022-08-26T00:12:18.591Z,100124.77
2022-08-26T00:14:57.520Z,100126.42
2022-08-26T00:17:31.318Z,100117.67
2022-08-26T00:20:01.063Z,100117.00
2022-08-26T00:22:32.700Z,100109.52
2022-08-26T00:25:02.648Z,100105.39
2022-08-26T00:27:33.434Z,100102.47
2022-08-26T00:30:22.776Z,100099.55
2022-08-26T00:32:53.776Z,100097.17
2022-08-26T00:35:24.108Z,100096.50
2022-08-26T00:37:53.687Z,100096.65
2022-08-26T00:40:30.964Z,100095.41
2022-08-26T00:43:01.840Z,100094.73
2022-08-26T00:45:40.261Z,100092.23
2022-08-26T00:48:16.409Z,100098.80
2022-08-26T00:50:55.273Z,100097.73
2022-08-26T00:53:30.405Z,100094.73
2022-08-26T00:56:07.476Z,100094.70
2022-08-26T00:58:43.873Z,100093.17
2022-08-26T01:01:14.277Z,100095.45
2022-08-26T01:03:46.607Z,100098.84
2022-08-26T01:06:16.365Z,100101.45
2022-08-26T01:08:46.359Z,100093.08
2022-08-26T01:11:16.936Z,100094.70
2022-08-26T01:14:03.292Z,100090.95
2022-08-26T01:16:33.281Z,100088.19
2022-08-26T01:19:16.068Z,100089.13
2022-08-26T01:22:01.218Z,100089.35
2022-08-26T01:24:31.800Z,100094.90
2022-08-26T01:27:04.879Z,100089.80
2022-08-26T01:29:36.989Z,100086.39
2022-08-26T01:32:10.575Z,100084.88
2022-08-26T01:34:40.787Z,100083.69
2022-08-26T01:37:15.619Z,100086.80
2022-08-26T01:39:48.151Z,100090.06
2022-08-26T01:42:20.972Z,100089.38
2022-08-26T01:44:53.604Z,100089.33
2022-08-26T01:47:30.093Z,100088.59
2022-08-26T01:50:03.182Z,100088.27
2022-08-26T01:52:36.787Z,100084.65
2022-08-26T01:55:10.144Z,100084.45
2022-08-26T01:57:40.054Z,100086.88
2022-08-26T02:00:16.273Z,100083.83
2022-08-26T02:02:52.789Z,100082.61
2022-08-26T02:05:22.289Z,100084.96
2022-08-26T02:07:52.308Z,100087.09
2022-08-26T02:10:23.461Z,100086.63
2022-08-26T02:12:53.315Z,100088.23
2022-08-26T02:15:26.803Z,100082.95
2022-08-26T02:18:00.930Z,100081.08
2022-08-26T02:20:30.402Z,100083.19
2022-08-26T02:23:02.817Z,100083.98
2022-08-26T02:25:40.352Z,100085.73
2022-08-26T02:28:10.455Z,100085.75
2022-08-26T02:30:40.499Z,100088.37
2022-08-26T02:33:10.096Z,100086.65
2022-08-26T02:35:39.998Z,100088.02
2022-08-26T02:38:11.078Z,100089.70
2022-08-26T02:40:43.282Z,100086.95
2022-08-26T02:43:16.979Z,100090.72
2022-08-26T02:45:48.291Z,100092.65
2022-08-26T02:48:21.356Z,100092.82
2022-08-26T02:50:52.346Z,100093.80
2022-08-26T02:53:25.279Z,100096.23
2022-08-26T02:55:55.431Z,100096.41
2022-08-26T02:58:28.253Z,100099.20
2022-08-26T03:01:06.025Z,100100.23
2022-08-26T03:03:40.629Z,100097.46
2022-08-26T03:06:13.797Z,100105.75
2022-08-26T03:08:43.890Z,100109.89
2022-08-26T03:11:20.540Z,100106.10
2022-08-26T03:13:53.753Z,100107.21
2022-08-26T03:16:32.271Z,100111.04
2022-08-26T03:19:04.247Z,100110.99
2022-08-26T03:21:36.870Z,100112.37
2022-08-26T03:24:11.414Z,100113.86
2022-08-26T03:26:52.081Z,100114.48
2022-08-26T03:29:41.118Z,100115.80
2022-08-26T03:32:10.900Z,100113.09
2022-08-26T03:34:40.700Z,100114.27
2022-08-26T03:37:11.151Z,100113.63
2022-08-26T03:39:42.833Z,100111.02
2022-08-26T03:42:14.487Z,100110.55
2022-08-26T03:44:43.722Z,100109.43
2022-08-26T03:47:16.608Z,100106.10
2022-08-26T03:49:47.109Z,100111.84
2022-08-26T03:52:20.236Z,100111.21
2022-08-26T03:54:53.953Z,100112.71
2022-08-26T03:57:23.145Z,100109.20
2022-08-26T03:59:52.700Z,100113.55
2022-08-26T04:02:25.644Z,100114.54
2022-08-26T04:04:56.769Z,100110.16
2022-08-26T04:07:33.340Z,100114.35
2022-08-26T04:10:06.330Z,100111.59
2022-08-26T04:12:36.094Z,100111.62
2022-08-26T04:15:07.490Z,100114.64
2022-08-26T04:17:48.884Z,100113.44
2022-08-26T04:20:18.286Z,100112.61
2022-08-26T04:23:11.860Z,100116.71
2022-08-26T04:25:47.805Z,100120.40
2022-08-26T04:28:18.243Z,100117.52
2022-08-26T04:35:31.592Z,100117.35
2022-08-26T04:37:43.523Z,100117.84
2022-08-26T04:40:14.597Z,100121.19
2022-08-26T04:42:58.014Z,100117.77
2022-08-26T04:45:43.518Z,100119.15
2022-08-26T04:48:13.299Z,100119.77
2022-08-26T04:50:49.579Z,100117.50
2022-08-26T04:53:19.159Z,100118.48
2022-08-26T04:55:55.382Z,100116.16
2022-08-26T04:58:27.493Z,100115.46
2022-08-26T05:00:56.734Z,100113.91
2022-08-26T05:03:27.061Z,100112.29
2022-08-26T05:05:56.251Z,100113.21
2022-08-26T05:08:25.823Z,100111.91
2022-08-26T05:10:56.396Z,100111.42
2022-08-26T05:13:27.819Z,100111.70
2022-08-26T05:16:01.332Z,100111.33
2022-08-26T05:18:31.395Z,100111.72
2022-08-26T05:21:01.850Z,100111.46
2022-08-26T05:23:35.121Z,100109.92
2022-08-26T05:26:11.438Z,100109.09
2022-08-26T05:28:40.631Z,100113.32
2022-08-26T05:31:24.744Z,100113.19
2022-08-26T05:34:00.138Z,100114.50
2022-08-26T05:36:41.612Z,100116.35
2022-08-26T05:39:16.074Z,100119.45
2022-08-26T05:42:02.341Z,100117.28
2022-08-26T05:44:53.526Z,100118.02
2022-08-26T05:50:25.263Z,100117.55
2022-08-26T05:52:58.597Z,100116.83
2022-08-26T05:58:17.630Z,100114.05
2022-08-26T06:00:56.984Z,100119.09
2022-08-26T06:03:26.828Z,100119.45
2022-08-26T06:05:56.620Z,100121.41
2022-08-26T06:08:26.329Z,100123.50
2022-08-26T06:11:01.497Z,100124.55
2022-08-26T06:13:33.244Z,100127.06
2022-08-26T06:16:11.560Z,100126.71
2022-08-26T06:19:10.739Z,100129.30
2022-08-26T06:21:42.310Z,100128.38
2022-08-26T06:24:35.904Z,100128.70
2022-08-26T06:27:13.067Z,100125.55
2022-08-26T06:32:29.097Z,100127.41
2022-08-26T06:34:58.985Z,100123.79
2022-08-26T06:37:28.778Z,100125.45
2022-08-26T06:39:58.987Z,100131.92
2022-08-26T06:42:29.197Z,100129.53
2022-08-26T06:45:00.354Z,100129.91
2022-08-26T06:47:30.029Z,100127.60
2022-08-26T06:50:50.367Z,100131.38
2022-08-26T06:56:51.548Z,100126.91
2022-08-26T07:01:14.514Z,100127.85
2022-08-26T07:02:29.400Z,100127.83
2022-08-26T07:17:14.740Z,100117.45
2022-08-26T07:17:17.368Z,100130.13
2022-08-26T07:23:01.465Z,100115.39
2022-08-26T07:23:11.787Z,100118.20
2022-08-26T07:28:03.186Z,100115.40
2022-08-26T07:29:44.866Z,100121.70
2022-08-26T07:32:18.656Z,100115.29
2022-08-26T07:34:49.897Z,100112.42
2022-08-26T07:37:19.661Z,100117.19
2022-08-26T07:39:54.523Z,100111.30
2022-08-26T07:42:27.152Z,100117.94
2022-08-26T07:45:04.511Z,100119.11
2022-08-26T07:47:35.172Z,100116.11
2022-08-26T07:57:35.415Z,100103.76
2022-08-26T07:57:39.926Z,100115.17
2022-08-26T08:00:07.570Z,100104.06
2022-08-26T08:02:36.744Z,100105.97
2022-08-26T08:05:10.535Z,100098.09
2022-08-26T08:07:45.588Z,100093.09
2022-08-26T08:10:20.851Z,100091.68
2022-08-26T08:12:57.583Z,100100.09
2022-08-26T08:15:36.781Z,100089.89
2022-08-26T08:18:06.041Z,100085.54
2022-08-26T08:20:59.462Z,100088.09
2022-08-26T08:23:50.502Z,100082.16
2022-08-26T08:32:02.047Z,100071.23
2022-08-26T08:34:33.533Z,100064.65
2022-08-26T08:45:55.360Z,100052.85
2022-08-26T08:49:11.003Z,100052.44
2022-08-26T09:19:14.438Z,100046.79
2022-08-26T09:21:58.228Z,100039.73
2022-08-26T09:24:41.647Z,100040.05
2022-08-26T09:27:12.364Z,100047.15
2022-08-26T09:29:53.506Z,100043.44
2022-08-26T09:32:36.006Z,100041.04
2022-08-26T09:35:08.409Z,100033.58
2022-08-26T09:38:09.077Z,100040.32
2022-08-26T09:40:56.235Z,100031.61
2022-08-26T09:43:37.161Z,100039.09
2022-08-26T09:46:35.994Z,100039.88
2022-08-26T09:57:14.009Z,100032.96
2022-08-26T09:59:44.124Z,100036.29
2022-08-26T10:02:29.728Z,100033.13
2022-08-26T10:05:09.337Z,100032.20
2022-08-26T10:07:46.555Z,100029.11
2022-08-26T10:10:18.620Z,100022.29
2022-08-26T10:12:59.201Z,100020.92
2022-08-26T10:15:33.436Z,100021.54
2022-08-26T10:18:10.206Z,100016.58
2022-08-26T10:20:49.583Z,100015.27
2022-08-26T10:23:23.277Z,100005.59
2022-08-26T10:25:59.183Z,100006.96
2022-08-26T10:28:35.813Z,100005.69
2022-08-26T10:31:20.445Z,100004.81
2022-08-26T10:34:00.854Z,99999.80
2022-08-26T10:37:14.459Z,99997.73
2022-08-26T10:39:59.304Z,99995.16
2022-08-26T10:42:50.249Z,99986.02
2022-08-26T10:45:37.369Z,99989.30
2022-08-26T10:48:13.016Z,99988.08
2022-08-26T10:50:44.351Z,99996.27
2022-08-26T10:53:24.949Z,99991.02
2022-08-26T10:56:18.740Z,99982.80
2022-08-26T10:59:01.718Z,99987.60
2022-08-26T11:01:55.391Z,99981.27
2022-08-26T11:04:50.860Z,99977.66
2022-08-26T11:07:47.985Z,99976.85
2022-08-26T11:11:03.233Z,99973.17
2022-08-26T11:14:03.496Z,99975.20
2022-08-26T11:16:45.965Z,99969.33
2022-08-26T11:20:00.666Z,99967.99
2022-08-26T11:28:45.484Z,99972.21
2022-08-26T11:30:57.765Z,99970.77
2022-08-26T11:34:20.354Z,99972.87
2022-08-26T11:37:07.444Z,99968.06
2022-08-26T11:40:15.597Z,99959.70
2022-08-26T12:13:43.091Z,99937.31
2022-08-26T12:16:27.212Z,99932.10
2022-08-26T12:18:57.675Z,99932.63
2022-08-26T12:21:34.719Z,99932.27
2022-08-26T12:24:05.511Z,99933.30
2022-08-26T12:26:36.865Z,99931.60
2022-08-26T12:29:20.017Z,99926.02
2022-08-26T12:32:08.759Z,99926.63
2022-08-26T12:34:38.191Z,99917.56
2022-08-26T12:37:10.157Z,99919.20
2022-08-26T12:39:42.477Z,99913.38
2022-08-26T12:42:40.031Z,99915.27
2022-08-26T12:45:10.645Z,99917.38
2022-08-26T12:47:43.980Z,99917.45
2022-08-26T12:50:20.494Z,99916.50
2022-08-26T12:52:57.443Z,99918.67
2022-08-26T12:55:38.607Z,99915.63
2022-08-26T12:58:23.916Z,99917.89
2022-08-26T13:00:54.867Z,99914.77
2022-08-26T13:03:43.185Z,99910.44
2022-08-26T13:06:16.991Z,99903.17
2022-08-26T13:08:47.745Z,99910.65
2022-08-26T13:11:19.744Z,99906.09
2022-08-26T13:13:56.877Z,99904.16
2022-08-26T13:16:25.387Z,99899.98
2022-08-26T13:18:57.589Z,99904.09
2022-08-26T13:21:29.779Z,99906.42
2022-08-26T13:24:11.223Z,99908.09
2022-08-26T13:26:40.807Z,99898.01
2022-08-26T13:29:10.681Z,99899.73
2022-08-26T13:31:42.097Z,99900.13
2022-08-26T13:34:13.999Z,99898.95
2022-08-26T13:36:44.323Z,99900.73
2022-08-26T13:39:13.638Z,99897.86
2022-08-26T13:41:42.995Z,99900.61
2022-08-26T13:44:13.048Z,99896.83
2022-08-26T13:46:42.123Z,99899.41
2022-08-26T13:49:12.116Z,99898.36
2022-08-26T13:51:41.392Z,99900.86
2022-08-26T13:54:10.214Z,99901.61
2022-08-26T13:56:39.196Z,99905.88
2022-08-26T13:59:08.247Z,99904.50
2022-08-26T14:01:39.498Z,99903.10
2022-08-26T14:04:08.633Z,99903.67
2022-08-26T14:06:37.563Z,99903.55
2022-08-26T14:09:06.562Z,99909.95
2022-08-26T14:11:50.596Z,99909.26
2022-08-26T14:14:24.555Z,99904.34
2022-08-26T14:16:58.862Z,99912.77
2022-08-26T14:19:30.115Z,99910.30
2022-08-26T14:22:00.515Z,99912.45
2022-08-26T14:24:29.857Z,99910.21
2022-08-26T14:26:58.906Z,99907.40
2022-08-26T14:29:28.121Z,99910.05
2022-08-26T14:32:00.678Z,99902.54
2022-08-26T14:34:30.001Z,99900.17
2022-08-26T14:36:59.003Z,99901.16
2022-08-26T14:39:37.781Z,99899.54
2022-08-26T14:42:08.438Z,99897.92
2022-08-26T14:44:38.048Z,99902.95
2022-08-26T14:47:07.928Z,99908.38
2022-08-26T14:49:40.322Z,99908.73
2022-08-26T14:52:09.524Z,99909.83
2022-08-26T14:54:38.925Z,99910.02
2022-08-26T14:57:11.239Z,99914.64
2022-08-26T14:59:42.933Z,99914.15
2022-08-26T15:02:27.747Z,99915.16
2022-08-26T15:05:03.581Z,99914.70
2022-08-26T15:07:32.678Z,99914.66
2022-08-26T15:10:01.711Z,99918.89
2022-08-26T15:12:30.884Z,99916.38
2022-08-26T15:15:00.194Z,99917.44
2022-08-26T15:17:29.261Z,99918.10
2022-08-26T15:19:58.275Z,99919.97
2022-08-26T15:22:29.825Z,99916.08
2022-08-26T15:24:59.149Z,99920.60
2022-08-26T15:27:28.422Z,99917.52
2022-08-26T15:29:57.350Z,99917.21
2022-08-26T15:32:26.466Z,99914.27
2022-08-26T15:34:55.515Z,99923.33
2022-08-26T15:37:24.773Z,99927.69
2022-08-26T15:39:53.681Z,99922.62
2022-08-26T15:42:22.977Z,99916.15
2022-08-26T15:44:52.325Z,99925.34
2022-08-26T15:47:21.700Z,99920.57
2022-08-26T15:49:50.857Z,99919.64
2022-08-26T15:52:19.729Z,99920.42
2022-08-26T15:54:48.754Z,99921.99
2022-08-26T15:57:22.605Z,99920.04
2022-08-26T15:59:51.703Z,99921.52
2022-08-26T16:02:20.858Z,99923.02
2022-08-26T16:04:49.914Z,99928.67
2022-08-26T16:07:31.818Z,99928.31
2022-08-26T16:10:00.769Z,99932.07
2022-08-26T16:12:29.868Z,99928.09
2022-08-26T16:14:58.779Z,99932.50
2022-08-26T16:17:28.106Z,99932.13
2022-08-26T16:19:57.320Z,99930.04
2022-08-26T16:22:26.887Z,99930.26
2022-08-26T16:24:58.629Z,99933.63
2022-08-26T16:27:27.506Z,99932.21
2022-08-26T16:29:56.375Z,99932.87
2022-08-26T16:32:28.283Z,99933.80
2022-08-26T16:35:00.478Z,99937.81
2022-08-26T16:37:29.561Z,99939.02
2022-08-26T16:39:58.534Z,99940.80
2022-08-26T16:42:27.542Z,99943.29
2022-08-26T16:44:56.555Z,99948.31
2022-08-26T16:47:26.477Z,99948.48
2022-08-26T16:49:55.396Z,99949.28
2022-08-26T16:52:24.977Z,99950.77
2022-08-26T16:54:59.158Z,99949.17
2022-08-26T16:57:28.389Z,99953.39
2022-08-26T16:59:57.265Z,99949.70
2022-08-26T17:02:26.804Z,99952.98
2022-08-26T17:04:55.955Z,99955.04
2022-08-26T17:07:26.083Z,99954.45
2022-08-26T17:09:55.681Z,99954.83
2022-08-26T17:12:24.963Z,99958.12
2022-08-26T17:14:53.828Z,99957.27
2022-08-26T17:17:22.810Z,99955.25
2022-08-26T17:19:51.972Z,99955.50
2022-08-26T17:22:20.875Z,99956.17
2022-08-26T17:24:49.838Z,99956.73
2022-08-26T17:27:19.405Z,99965.09
2022-08-26T17:29:48.299Z,99964.29
2022-08-26T17:32:17.268Z,99964.88
2022-08-26T17:34:46.659Z,99967.83
2022-08-26T17:37:16.384Z,99970.52
2022-08-26T17:39:45.434Z,99973.33
2022-08-26T17:42:14.689Z,99978.42
2022-08-26T17:44:46.366Z,99979.38
2022-08-26T17:47:15.588Z,99977.73
2022-08-26T17:49:45.052Z,99975.01
2022-08-26T17:52:14.250Z,99980.67
2022-08-26T17:54:43.307Z,99980.33
2022-08-26T17:57:12.333Z,99982.34
2022-08-26T17:59:41.781Z,99985.91
2022-08-26T18:02:10.829Z,99989.52
2022-08-26T18:04:39.771Z,99990.67
2022-08-26T18:07:09.206Z,99994.66
2022-08-26T18:09:38.055Z,99996.20
2022-08-26T18:12:08.131Z,99998.45
2022-08-26T18:14:37.271Z,99998.53
2022-08-26T18:17:06.283Z,100000.13
2022-08-26T18:19:35.896Z,100003.20
2022-08-26T18:22:06.324Z,100009.20
2022-08-26T18:24:35.491Z,100010.42
2022-08-26T18:27:05.106Z,100014.78
2022-08-26T18:29:34.300Z,100019.02
2022-08-26T18:32:03.794Z,100022.86
2022-08-26T18:34:34.109Z,100024.80
2022-08-26T18:37:03.190Z,100028.45
2022-08-26T18:39:32.352Z,100031.67
2022-08-26T18:42:01.495Z,100032.41
2022-08-26T18:44:30.428Z,100035.85
2022-08-26T18:46:59.398Z,100037.60
2022-08-26T18:49:28.997Z,100036.85
2022-08-26T18:51:57.977Z,100039.42
2022-08-26T18:54:27.209Z,100039.66
2022-08-26T18:56:56.163Z,100041.63
2022-08-26T18:59:29.626Z,100048.99
2022-08-26T19:02:00.523Z,100051.77
2022-08-26T19:04:29.442Z,100062.04
2022-08-26T19:06:58.513Z,100061.59
2022-08-26T19:09:28.161Z,100068.23
2022-08-26T19:11:58.384Z,100066.13
2022-08-26T19:14:27.519Z,100063.81
2022-08-26T19:16:56.646Z,100063.36
2022-08-26T19:19:25.662Z,100065.70
2022-08-26T19:21:54.671Z,100069.84
2022-08-26T19:24:27.294Z,100066.88
2022-08-26T19:27:00.107Z,100067.90
2022-08-26T19:29:33.738Z,100064.55
2022-08-26T19:32:04.165Z,100059.23
2022-08-26T19:34:33.279Z,100057.73
2022-08-26T19:37:02.365Z,100059.83
2022-08-26T19:39:31.263Z,100063.18
2022-08-26T19:42:00.266Z,100059.60
2022-08-26T19:44:47.658Z,100068.45
2022-08-26T19:47:16.684Z,100066.49
2022-08-26T19:49:45.669Z,100065.40
2022-08-26T19:52:14.841Z,100060.27
2022-08-26T19:54:44.317Z,100058.66
2022-08-26T19:57:13.158Z,100058.50
2022-08-26T19:59:43.827Z,100056.45
2022-08-26T20:02:14.170Z,100058.54
2022-08-26T20:04:43.865Z,100058.83
2022-08-26T20:07:18.115Z,100059.05
2022-08-26T20:09:48.960Z,100061.91
2022-08-26T20:12:18.525Z,100059.67
2022-08-26T20:14:47.822Z,100059.52
2022-08-26T20:17:16.810Z,100066.91
2022-08-26T20:20:04.216Z,100062.77
2022-08-26T20:22:33.995Z,100069.21
2022-08-26T20:25:02.894Z,100068.05
2022-08-26T20:27:37.662Z,100072.93
2022-08-26T20:30:10.032Z,100076.11
2022-08-26T20:32:39.881Z,100077.44
2022-08-26T20:35:13.655Z,100080.89
2022-08-26T20:37:43.153Z,100081.77
2022-08-26T20:40:14.704Z,100077.70
2022-08-26T20:42:43.596Z,100077.03
2022-08-26T20:45:12.830Z,100076.19
2022-08-26T20:47:43.055Z,100079.25
2022-08-26T20:50:12.034Z,100079.15
2022-08-26T20:52:41.236Z,100083.28
2022-08-26T20:55:11.078Z,100082.06
2022-08-26T20:57:41.640Z,100081.61
2022-08-26T21:00:13.734Z,100084.65
2022-08-26T21:02:44.081Z,100085.19
2022-08-26T21:05:13.185Z,100085.23
2022-08-26T21:07:42.550Z,100087.83
2022-08-26T21:10:14.705Z,100089.36
2022-08-26T21:12:43.719Z,100092.80
2022-08-26T21:15:12.913Z,100091.04
2022-08-26T21:17:41.831Z,100092.98
2022-08-26T21:20:11.155Z,100094.48
2022-08-26T21:22:40.293Z,100097.76
2022-08-26T21:25:11.023Z,100096.50
2022-08-26T21:27:39.945Z,100096.52
2022-08-26T21:30:11.605Z,100096.97
2022-08-26T21:32:40.647Z,100098.21
2022-08-26T21:35:10.891Z,100094.64
2022-08-26T21:37:39.995Z,100100.39
2022-08-26T21:40:10.885Z,100102.11
2022-08-26T21:42:39.989Z,100103.44
2022-08-26T21:45:10.087Z,100103.16
2022-08-26T21:47:40.040Z,100102.23
2022-08-26T21:50:09.820Z,100099.70
2022-08-26T21:52:39.707Z,100100.70
2022-08-26T21:55:11.707Z,100100.30
2022-08-26T21:57:40.931Z,100100.46
2022-08-26T22:00:15.153Z,100100.37
2022-08-26T22:02:44.373Z,100098.83
2022-08-26T22:05:13.622Z,100102.30
2022-08-26T22:07:42.476Z,100102.61
2022-08-26T22:10:11.971Z,100105.38
2022-08-26T22:12:40.841Z,100101.91
2022-08-26T22:15:11.645Z,100102.89
2022-08-26T22:17:40.689Z,100097.55
2022-08-26T22:20:16.566Z,100096.17
2022-08-26T22:22:46.134Z,100094.61
2022-08-26T22:25:15.381Z,100091.09
2022-08-26T22:27:44.273Z,100091.64
2022-08-26T22:30:14.017Z,100085.94
2022-08-26T22:32:45.111Z,100085.30
2022-08-26T22:35:29.203Z,100086.89
2022-08-26T22:37:59.302Z,100083.49
2022-08-26T22:40:28.445Z,100079.63
2022-08-26T22:43:00.227Z,100076.51
2022-08-26T22:45:31.182Z,100074.09
2022-08-26T22:48:04.417Z,100078.05
2022-08-26T22:50:33.680Z,100077.14
2022-08-26T22:53:02.678Z,100074.59
2022-08-26T22:55:31.739Z,100076.92
2022-08-26T22:58:01.374Z,100076.02
2022-08-26T23:00:32.366Z,100079.90
2022-08-26T23:03:03.758Z,100079.09
2022-08-26T23:05:33.053Z,100076.71
2022-08-26T23:08:02.863Z,100077.35
2022-08-26T23:10:32.164Z,100076.25
2022-08-26T23:13:01.804Z,100075.00
2022-08-26T23:15:31.331Z,100072.10
2022-08-26T23:18:00.529Z,100071.88
2022-08-26T23:20:30.732Z,100067.77
2022-08-26T23:23:00.866Z,100067.42
2022-08-26T23:25:31.876Z,100065.88
2022-08-26T23:28:01.127Z,100067.30
2022-08-26T23:30:32.415Z,100070.13
2022-08-26T23:33:01.836Z,100076.60
2022-08-26T23:35:30.945Z,100078.17
2022-08-26T23:38:01.146Z,100075.35
2022-08-26T23:40:33.889Z,100075.01
2022-08-26T23:43:05.297Z,100077.21
2022-08-26T23:45:34.794Z,100078.35
2022-08-26T23:48:05.027Z,100074.60
2022-08-26T23:51:03.970Z,100073.80
2022-08-26T23:53:33.620Z,100072.45
2022-08-26T23:56:02.885Z,100070.83
2022-08-26T23:58:31.928Z,100069.52
